sensor_id;sensor_type;location;lat;lon;timestamp;temperature;humidity
54260;DHT22;40172;53.022;7.012;2023-06-22T00:00:58;17.00;99.90
54260;DHT22;40172;53.022;7.012;2023-06-22T00:03:25;17.00;99.90
54260;DHT22;40172;53.022;7.012;2023-06-22T00:05:51;17.00;99.90
54260;DHT22;40172;53.022;7.012;2023-06-22T00:08:17;17.00;99.90
54260;DHT22;40172;53.022;7.012;2023-06-22T00:10:44;17.00;99.90
54260;DHT22;40172;53.022;7.012;2023-06-22T00:13:10;16.90;99.90
54260;DHT22;40172;53.022;7.012;2023-06-22T00:15:37;17.00;99.90
54260;DHT22;40172;53.022;7.012;2023-06-22T00:18:05;16.90;99.90
54260;DHT22;40172;53.022;7.012;2023-06-22T00:20:31;16.90;99.90
54260;DHT22;40172;53.022;7.012;2023-06-22T00:22:58;16.80;99.90
54260;DHT22;40172;53.022;7.012;2023-06-22T00:25:25;16.80;99.90
54260;DHT22;40172;53.022;7.012;2023-06-22T00:27:50;17.20;99.90
54260;DHT22;40172;53.022;7.012;2023-06-22T00:30:17;16.70;99.90
54260;DHT22;40172;53.022;7.012;2023-06-22T00:32:43;16.70;99.90
54260;DHT22;40172;53.022;7.012;2023-06-22T00:35:09;16.70;99.90
54260;DHT22;40172;53.022;7.012;2023-06-22T00:37:36;16.70;99.90
54260;DHT22;40172;53.022;7.012;2023-06-22T00:40:03;16.70;99.90
54260;DHT22;40172;53.022;7.012;2023-06-22T00:42:30;16.70;99.90
54260;DHT22;40172;53.022;7.012;2023-06-22T00:44:56;16.60;99.90
54260;DHT22;40172;53.022;7.012;2023-06-22T00:47:21;16.60;99.90
54260;DHT22;40172;53.022;7.012;2023-06-22T00:49:49;16.60;99.90
54260;DHT22;40172;53.022;7.012;2023-06-22T00:52:20;16.50;99.90
54260;DHT22;40172;53.022;7.012;2023-06-22T00:54:51;16.60;99.90
54260;DHT22;40172;53.022;7.012;2023-06-22T00:57:17;16.50;99.90
54260;DHT22;40172;53.022;7.012;2023-06-22T00:59:44;16.50;99.90
54260;DHT22;40172;53.022;7.012;2023-06-22T01:02:10;16.50;99.90
54260;DHT22;40172;53.022;7.012;2023-06-22T01:04:37;16.40;99.90
54260;DHT22;40172;53.022;7.012;2023-06-22T01:07:27;16.30;99.90
54260;DHT22;40172;53.022;7.012;2023-06-22T01:10:21;16.30;99.90
54260;DHT22;40172;53.022;7.012;2023-06-22T01:12:52;16.30;99.90
54260;DHT22;40172;53.022;7.012;2023-06-22T01:15:28;16.20;99.90
54260;DHT22;40172;53.022;7.012;2023-06-22T01:17:57;16.10;99.90
54260;DHT22;40172;53.022;7.012;2023-06-22T01:20:25;16.10;99.90
54260;DHT22;40172;53.022;7.012;2023-06-22T01:23:11;16.00;99.90
54260;DHT22;40172;53.022;7.012;2023-06-22T01:28:54;16.00;99.90
54260;DHT22;40172;53.022;7.012;2023-06-22T01:31:24;15.90;99.90
54260;DHT22;40172;53.022;7.012;2023-06-22T01:33:54;15.90;99.90
54260;DHT22;40172;53.022;7.012;2023-06-22T01:36:21;15.90;99.90
54260;DHT22;40172;53.022;7.012;2023-06-22T01:38:48;15.80;99.90
54260;DHT22;40172;53.022;7.012;2023-06-22T01:41:13;15.80;99.90
54260;DHT22;40172;53.022;7.012;2023-06-22T01:43:40;15.80;99.90
54260;DHT22;40172;53.022;7.012;2023-06-22T01:46:07;15.80;99.90
54260;DHT22;40172;53.022;7.012;2023-06-22T01:48:33;15.80;99.90
54260;DHT22;40172;53.022;7.012;2023-06-22T01:50:59;15.70;99.90
54260;DHT22;40172;53.022;7.012;2023-06-22T01:53:25;15.60;99.90
54260;DHT22;40172;53.022;7.012;2023-06-22T01:55:50;15.60;99.90
54260;DHT22;40172;53.022;7.012;2023-06-22T01:58:16;15.60;99.90
54260;DHT22;40172;53.022;7.012;2023-06-22T02:00:50;15.60;99.90
54260;DHT22;40172;53.022;7.012;2023-06-22T02:03:26;15.70;99.90
54260;DHT22;40172;53.022;7.012;2023-06-22T02:06:01;15.60;99.90
54260;DHT22;40172;53.022;7.012;2023-06-22T02:08:40;15.60;99.90
54260;DHT22;40172;53.022;7.012;2023-06-22T02:11:08;15.70;99.90
54260;DHT22;40172;53.022;7.012;2023-06-22T02:13:36;15.70;99.90
54260;DHT22;40172;53.022;7.012;2023-06-22T02:16:02;15.60;99.90
54260;DHT22;40172;53.022;7.012;2023-06-22T02:18:27;15.60;99.90
54260;DHT22;40172;53.022;7.012;2023-06-22T02:20:53;15.50;99.90
54260;DHT22;40172;53.022;7.012;2023-06-22T02:23:19;15.60;99.90
54260;DHT22;40172;53.022;7.012;2023-06-22T02:25:45;15.60;99.90
54260;DHT22;40172;53.022;7.012;2023-06-22T02:28:10;15.60;99.90
54260;DHT22;40172;53.022;7.012;2023-06-22T02:30:36;15.60;99.90
54260;DHT22;40172;53.022;7.012;2023-06-22T02:33:02;15.60;99.90
54260;DHT22;40172;53.022;7.012;2023-06-22T02:35:30;15.60;99.90
54260;DHT22;40172;53.022;7.012;2023-06-22T02:38:01;15.60;99.90
54260;DHT22;40172;53.022;7.012;2023-06-22T02:40:28;15.50;99.90
54260;DHT22;40172;53.022;7.012;2023-06-22T02:42:55;15.50;99.90
54260;DHT22;40172;53.022;7.012;2023-06-22T02:45:20;15.40;99.90
54260;DHT22;40172;53.022;7.012;2023-06-22T02:47:46;15.40;99.90
54260;DHT22;40172;53.022;7.012;2023-06-22T02:50:13;15.30;99.90
54260;DHT22;40172;53.022;7.012;2023-06-22T02:52:39;15.30;99.90
54260;DHT22;40172;53.022;7.012;2023-06-22T02:55:05;15.60;99.90
54260;DHT22;40172;53.022;7.012;2023-06-22T02:57:32;15.30;99.90
54260;DHT22;40172;53.022;7.012;2023-06-22T02:59:59;15.30;99.90
54260;DHT22;40172;53.022;7.012;2023-06-22T03:02:25;15.30;99.90
54260;DHT22;40172;53.022;7.012;2023-06-22T03:04:52;15.20;99.90
54260;DHT22;40172;53.022;7.012;2023-06-22T03:07:19;15.20;99.90
54260;DHT22;40172;53.022;7.012;2023-06-22T03:09:45;15.20;99.90
54260;DHT22;40172;53.022;7.012;2023-06-22T03:12:11;15.10;99.90
54260;DHT22;40172;53.022;7.012;2023-06-22T03:14:37;15.10;99.90
54260;DHT22;40172;53.022;7.012;2023-06-22T03:17:04;15.10;99.90
54260;DHT22;40172;53.022;7.012;2023-06-22T03:19:30;15.00;99.90
54260;DHT22;40172;53.022;7.012;2023-06-22T03:21:58;15.10;99.90
54260;DHT22;40172;53.022;7.012;2023-06-22T03:24:24;15.00;99.90
54260;DHT22;40172;53.022;7.012;2023-06-22T03:26:50;15.10;99.90
54260;DHT22;40172;53.022;7.012;2023-06-22T03:29:15;15.10;99.90
54260;DHT22;40172;53.022;7.012;2023-06-22T03:31:41;15.10;99.90
54260;DHT22;40172;53.022;7.012;2023-06-22T03:34:07;15.10;99.90
54260;DHT22;40172;53.022;7.012;2023-06-22T03:36:32;15.10;99.90
54260;DHT22;40172;53.022;7.012;2023-06-22T03:38:58;15.20;99.90
54260;DHT22;40172;53.022;7.012;2023-06-22T03:41:23;15.20;99.90
54260;DHT22;40172;53.022;7.012;2023-06-22T03:43:49;15.20;99.90
54260;DHT22;40172;53.022;7.012;2023-06-22T03:46:14;15.20;99.90
54260;DHT22;40172;53.022;7.012;2023-06-22T03:48:40;15.20;99.90
54260;DHT22;40172;53.022;7.012;2023-06-22T03:51:05;15.30;99.90
54260;DHT22;40172;53.022;7.012;2023-06-22T03:53:31;15.10;99.90
54260;DHT22;40172;53.022;7.012;2023-06-22T03:55:57;15.30;99.90
54260;DHT22;40172;53.022;7.012;2023-06-22T03:58:22;15.40;99.90
54260;DHT22;40172;53.022;7.012;2023-06-22T04:00:49;15.40;99.90
54260;DHT22;40172;53.022;7.012;2023-06-22T04:03:15;15.50;99.90
54260;DHT22;40172;53.022;7.012;2023-06-22T04:05:41;15.50;99.90
54260;DHT22;40172;53.022;7.012;2023-06-22T04:08:07;15.70;99.90
54260;DHT22;40172;53.022;7.012;2023-06-22T04:10:33;15.70;99.90
54260;DHT22;40172;53.022;7.012;2023-06-22T04:12:59;15.80;99.90
54260;DHT22;40172;53.022;7.012;2023-06-22T04:15:25;15.90;99.90
54260;DHT22;40172;53.022;7.012;2023-06-22T04:17:51;15.90;99.90
54260;DHT22;40172;53.022;7.012;2023-06-22T04:20:16;16.00;99.90
54260;DHT22;40172;53.022;7.012;2023-06-22T04:22:42;16.00;99.90
54260;DHT22;40172;53.022;7.012;2023-06-22T04:25:08;16.10;99.90
54260;DHT22;40172;53.022;7.012;2023-06-22T04:27:34;16.20;99.90
54260;DHT22;40172;53.022;7.012;2023-06-22T04:30:08;16.10;99.90
54260;DHT22;40172;53.022;7.012;2023-06-22T04:32:34;16.20;99.90
54260;DHT22;40172;53.022;7.012;2023-06-22T04:35:04;16.30;99.90
54260;DHT22;40172;53.022;7.012;2023-06-22T04:37:32;16.40;99.90
54260;DHT22;40172;53.022;7.012;2023-06-22T04:39:58;16.40;99.90
54260;DHT22;40172;53.022;7.012;2023-06-22T04:42:28;16.50;99.90
54260;DHT22;40172;53.022;7.012;2023-06-22T04:44:54;16.50;99.90
54260;DHT22;40172;53.022;7.012;2023-06-22T04:47:19;16.70;99.90
54260;DHT22;40172;53.022;7.012;2023-06-22T04:49:45;16.80;99.90
54260;DHT22;40172;53.022;7.012;2023-06-22T04:52:12;16.80;99.90
54260;DHT22;40172;53.022;7.012;2023-06-22T04:54:39;16.90;99.90
54260;DHT22;40172;53.022;7.012;2023-06-22T04:57:07;17.00;99.90
54260;DHT22;40172;53.022;7.012;2023-06-22T04:59:36;17.00;99.90
54260;DHT22;40172;53.022;7.012;2023-06-22T05:02:05;17.10;99.90
54260;DHT22;40172;53.022;7.012;2023-06-22T05:04:31;17.20;99.90
54260;DHT22;40172;53.022;7.012;2023-06-22T05:06:57;17.30;99.90
54260;DHT22;40172;53.022;7.012;2023-06-22T05:09:23;17.40;99.90
54260;DHT22;40172;53.022;7.012;2023-06-22T05:11:50;17.50;99.90
54260;DHT22;40172;53.022;7.012;2023-06-22T05:14:16;17.60;99.90
54260;DHT22;40172;53.022;7.012;2023-06-22T05:16:42;17.60;99.90
54260;DHT22;40172;53.022;7.012;2023-06-22T05:19:08;17.80;99.90
54260;DHT22;40172;53.022;7.012;2023-06-22T05:21:34;17.90;99.90
54260;DHT22;40172;53.022;7.012;2023-06-22T05:24:00;18.00;99.90
54260;DHT22;40172;53.022;7.012;2023-06-22T05:26:28;18.10;99.90
54260;DHT22;40172;53.022;7.012;2023-06-22T05:28:54;18.20;99.90
54260;DHT22;40172;53.022;7.012;2023-06-22T05:31:19;18.30;99.90
54260;DHT22;40172;53.022;7.012;2023-06-22T05:33:46;18.40;99.90
54260;DHT22;40172;53.022;7.012;2023-06-22T05:36:12;18.60;99.90
54260;DHT22;40172;53.022;7.012;2023-06-22T05:38:38;18.60;99.90
54260;DHT22;40172;53.022;7.012;2023-06-22T05:41:04;18.60;99.90
54260;DHT22;40172;53.022;7.012;2023-06-22T05:43:30;18.80;99.90
54260;DHT22;40172;53.022;7.012;2023-06-22T05:45:55;18.90;99.90
54260;DHT22;40172;53.022;7.012;2023-06-22T05:48:21;19.00;99.90
54260;DHT22;40172;53.022;7.012;2023-06-22T05:50:47;19.10;99.90
54260;DHT22;40172;53.022;7.012;2023-06-22T05:53:12;19.30;99.90
54260;DHT22;40172;53.022;7.012;2023-06-22T05:55:38;19.30;99.90
54260;DHT22;40172;53.022;7.012;2023-06-22T05:58:03;19.40;99.90
54260;DHT22;40172;53.022;7.012;2023-06-22T06:00:29;19.40;99.90
54260;DHT22;40172;53.022;7.012;2023-06-22T06:02:55;19.60;99.90
54260;DHT22;40172;53.022;7.012;2023-06-22T06:05:21;19.60;99.90
54260;DHT22;40172;53.022;7.012;2023-06-22T06:07:46;19.70;99.90
54260;DHT22;40172;53.022;7.012;2023-06-22T06:10:12;19.80;99.90
54260;DHT22;40172;53.022;7.012;2023-06-22T06:12:38;19.80;99.90
54260;DHT22;40172;53.022;7.012;2023-06-22T06:15:04;19.90;99.90
54260;DHT22;40172;53.022;7.012;2023-06-22T06:17:30;19.90;99.90
54260;DHT22;40172;53.022;7.012;2023-06-22T06:19:56;20.10;99.90
54260;DHT22;40172;53.022;7.012;2023-06-22T06:22:22;20.00;99.90
54260;DHT22;40172;53.022;7.012;2023-06-22T06:24:49;20.00;99.90
54260;DHT22;40172;53.022;7.012;2023-06-22T06:27:15;20.10;99.90
54260;DHT22;40172;53.022;7.012;2023-06-22T06:29:40;20.30;99.90
54260;DHT22;40172;53.022;7.012;2023-06-22T06:32:06;20.40;99.90
54260;DHT22;40172;53.022;7.012;2023-06-22T06:34:32;20.50;99.90
54260;DHT22;40172;53.022;7.012;2023-06-22T06:36:57;20.70;99.90
54260;DHT22;40172;53.022;7.012;2023-06-22T06:39:23;20.80;99.90
54260;DHT22;40172;53.022;7.012;2023-06-22T06:41:48;20.90;99.90
54260;DHT22;40172;53.022;7.012;2023-06-22T06:44:14;21.00;99.90
54260;DHT22;40172;53.022;7.012;2023-06-22T06:46:40;21.10;99.90
54260;DHT22;40172;53.022;7.012;2023-06-22T06:49:07;21.20;99.90
54260;DHT22;40172;53.022;7.012;2023-06-22T06:51:32;21.20;99.90
54260;DHT22;40172;53.022;7.012;2023-06-22T06:53:58;21.30;99.90
54260;DHT22;40172;53.022;7.012;2023-06-22T06:56:24;21.40;99.90
54260;DHT22;40172;53.022;7.012;2023-06-22T06:58:50;21.50;99.90
54260;DHT22;40172;53.022;7.012;2023-06-22T07:01:16;21.50;99.90
54260;DHT22;40172;53.022;7.012;2023-06-22T07:03:42;21.60;99.90
54260;DHT22;40172;53.022;7.012;2023-06-22T07:06:08;21.80;99.90
54260;DHT22;40172;53.022;7.012;2023-06-22T07:08:34;21.90;99.90
54260;DHT22;40172;53.022;7.012;2023-06-22T07:11:02;21.90;99.90
54260;DHT22;40172;53.022;7.012;2023-06-22T07:13:27;22.10;99.90
54260;DHT22;40172;53.022;7.012;2023-06-22T07:15:53;22.30;99.90
54260;DHT22;40172;53.022;7.012;2023-06-22T07:18:19;22.40;99.90
54260;DHT22;40172;53.022;7.012;2023-06-22T07:20:44;22.50;99.90
54260;DHT22;40172;53.022;7.012;2023-06-22T07:23:10;22.50;99.90
54260;DHT22;40172;53.022;7.012;2023-06-22T07:25:35;22.60;99.90
54260;DHT22;40172;53.022;7.012;2023-06-22T07:28:06;22.70;99.90
54260;DHT22;40172;53.022;7.012;2023-06-22T07:30:32;22.70;99.90
54260;DHT22;40172;53.022;7.012;2023-06-22T07:32:59;22.80;99.90
54260;DHT22;40172;53.022;7.012;2023-06-22T07:35:32;22.90;99.90
54260;DHT22;40172;53.022;7.012;2023-06-22T07:37:58;23.00;99.90
54260;DHT22;40172;53.022;7.012;2023-06-22T07:40:23;23.10;99.90
54260;DHT22;40172;53.022;7.012;2023-06-22T07:42:49;23.10;99.90
54260;DHT22;40172;53.022;7.012;2023-06-22T07:45:17;23.10;99.90
54260;DHT22;40172;53.022;7.012;2023-06-22T07:47:42;23.10;99.90
54260;DHT22;40172;53.022;7.012;2023-06-22T07:50:09;23.10;99.90
54260;DHT22;40172;53.022;7.012;2023-06-22T07:52:34;23.30;99.90
54260;DHT22;40172;53.022;7.012;2023-06-22T07:55:00;23.40;99.90
54260;DHT22;40172;53.022;7.012;2023-06-22T07:57:26;23.50;99.90
54260;DHT22;40172;53.022;7.012;2023-06-22T08:00:04;23.60;99.90
54260;DHT22;40172;53.022;7.012;2023-06-22T08:02:36;23.70;99.90
54260;DHT22;40172;53.022;7.012;2023-06-22T08:05:02;23.70;99.90
54260;DHT22;40172;53.022;7.012;2023-06-22T08:07:27;23.70;99.90
54260;DHT22;40172;53.022;7.012;2023-06-22T08:09:53;23.70;99.90
54260;DHT22;40172;53.022;7.012;2023-06-22T08:12:19;23.80;99.90
54260;DHT22;40172;53.022;7.012;2023-06-22T08:14:44;23.80;99.90
54260;DHT22;40172;53.022;7.012;2023-06-22T08:17:11;23.80;99.90
54260;DHT22;40172;53.022;7.012;2023-06-22T08:19:37;23.90;99.90
54260;DHT22;40172;53.022;7.012;2023-06-22T08:22:03;23.80;99.90
54260;DHT22;40172;53.022;7.012;2023-06-22T08:24:29;23.80;99.90
54260;DHT22;40172;53.022;7.012;2023-06-22T08:26:56;23.90;99.90
54260;DHT22;40172;53.022;7.012;2023-06-22T08:29:21;24.10;99.90
54260;DHT22;40172;53.022;7.012;2023-06-22T08:31:47;24.10;99.90
54260;DHT22;40172;53.022;7.012;2023-06-22T08:34:13;24.10;99.90
54260;DHT22;40172;53.022;7.012;2023-06-22T08:36:38;24.10;99.90
54260;DHT22;40172;53.022;7.012;2023-06-22T08:39:07;24.10;99.90
54260;DHT22;40172;53.022;7.012;2023-06-22T08:41:33;24.20;99.90
54260;DHT22;40172;53.022;7.012;2023-06-22T08:43:59;24.20;99.90
54260;DHT22;40172;53.022;7.012;2023-06-22T08:46:25;24.20;99.90
54260;DHT22;40172;53.022;7.012;2023-06-22T08:48:56;24.30;99.90
54260;DHT22;40172;53.022;7.012;2023-06-22T08:51:23;24.40;99.90
54260;DHT22;40172;53.022;7.012;2023-06-22T08:53:49;24.40;99.90
54260;DHT22;40172;53.022;7.012;2023-06-22T08:56:14;24.50;99.90
54260;DHT22;40172;53.022;7.012;2023-06-22T08:58:40;24.50;99.90
54260;DHT22;40172;53.022;7.012;2023-06-22T09:01:05;24.60;99.90
54260;DHT22;40172;53.022;7.012;2023-06-22T09:03:31;24.30;99.90
54260;DHT22;40172;53.022;7.012;2023-06-22T09:05:58;24.50;99.90
54260;DHT22;40172;53.022;7.012;2023-06-22T09:08:24;24.50;99.90
54260;DHT22;40172;53.022;7.012;2023-06-22T09:10:50;24.60;99.90
54260;DHT22;40172;53.022;7.012;2023-06-22T09:13:15;24.70;99.90
54260;DHT22;40172;53.022;7.012;2023-06-22T09:15:41;24.80;99.90
54260;DHT22;40172;53.022;7.012;2023-06-22T09:18:09;24.90;99.90
54260;DHT22;40172;53.022;7.012;2023-06-22T09:20:35;24.90;99.90
54260;DHT22;40172;53.022;7.012;2023-06-22T09:23:01;25.00;99.90
54260;DHT22;40172;53.022;7.012;2023-06-22T09:25:26;25.00;99.90
54260;DHT22;40172;53.022;7.012;2023-06-22T09:27:52;25.10;99.90
54260;DHT22;40172;53.022;7.012;2023-06-22T09:30:18;25.10;99.90
54260;DHT22;40172;53.022;7.012;2023-06-22T09:32:44;25.00;99.90
54260;DHT22;40172;53.022;7.012;2023-06-22T09:35:10;25.10;99.90
54260;DHT22;40172;53.022;7.012;2023-06-22T09:37:38;25.20;99.90
54260;DHT22;40172;53.022;7.012;2023-06-22T09:40:04;25.20;99.90
54260;DHT22;40172;53.022;7.012;2023-06-22T09:42:34;25.20;99.90
54260;DHT22;40172;53.022;7.012;2023-06-22T09:44:59;25.20;99.90
54260;DHT22;40172;53.022;7.012;2023-06-22T09:47:27;25.20;99.90
54260;DHT22;40172;53.022;7.012;2023-06-22T09:49:53;25.20;99.90
54260;DHT22;40172;53.022;7.012;2023-06-22T09:52:23;25.20;99.90
54260;DHT22;40172;53.022;7.012;2023-06-22T09:54:49;25.20;99.90
54260;DHT22;40172;53.022;7.012;2023-06-22T09:57:15;25.40;99.90
54260;DHT22;40172;53.022;7.012;2023-06-22T09:59:41;25.50;99.90
54260;DHT22;40172;53.022;7.012;2023-06-22T10:02:06;25.60;99.90
54260;DHT22;40172;53.022;7.012;2023-06-22T10:04:34;25.80;99.90
54260;DHT22;40172;53.022;7.012;2023-06-22T10:06:59;25.90;99.90
54260;DHT22;40172;53.022;7.012;2023-06-22T10:09:25;26.00;99.90
54260;DHT22;40172;53.022;7.012;2023-06-22T10:11:50;25.80;99.90
54260;DHT22;40172;53.022;7.012;2023-06-22T10:14:16;25.80;99.90
54260;DHT22;40172;53.022;7.012;2023-06-22T10:16:42;25.80;99.90
54260;DHT22;40172;53.022;7.012;2023-06-22T10:19:08;25.90;99.90
54260;DHT22;40172;53.022;7.012;2023-06-22T10:21:33;26.00;99.90
54260;DHT22;40172;53.022;7.012;2023-06-22T10:24:00;26.00;99.90
54260;DHT22;40172;53.022;7.012;2023-06-22T10:26:32;26.10;99.90
54260;DHT22;40172;53.022;7.012;2023-06-22T10:28:57;26.10;99.90
54260;DHT22;40172;53.022;7.012;2023-06-22T10:31:23;26.30;99.90
54260;DHT22;40172;53.022;7.012;2023-06-22T10:33:48;26.40;99.90
54260;DHT22;40172;53.022;7.012;2023-06-22T10:36:15;26.40;99.90
54260;DHT22;40172;53.022;7.012;2023-06-22T10:38:40;26.40;99.90
54260;DHT22;40172;53.022;7.012;2023-06-22T10:41:06;26.40;99.90
54260;DHT22;40172;53.022;7.012;2023-06-22T10:43:31;26.40;99.90
54260;DHT22;40172;53.022;7.012;2023-06-22T10:45:57;26.40;99.90
54260;DHT22;40172;53.022;7.012;2023-06-22T10:48:22;26.40;99.90
54260;DHT22;40172;53.022;7.012;2023-06-22T10:50:48;26.30;99.90
54260;DHT22;40172;53.022;7.012;2023-06-22T10:53:14;26.40;99.90
54260;DHT22;40172;53.022;7.012;2023-06-22T10:55:39;26.60;99.90
54260;DHT22;40172;53.022;7.012;2023-06-22T10:58:05;26.60;99.90
54260;DHT22;40172;53.022;7.012;2023-06-22T11:00:30;26.70;99.90
54260;DHT22;40172;53.022;7.012;2023-06-22T11:02:56;26.80;99.90
54260;DHT22;40172;53.022;7.012;2023-06-22T11:05:22;26.70;99.90
54260;DHT22;40172;53.022;7.012;2023-06-22T11:07:47;27.00;99.90
54260;DHT22;40172;53.022;7.012;2023-06-22T11:10:15;26.80;99.90
54260;DHT22;40172;53.022;7.012;2023-06-22T11:12:40;27.20;99.90
54260;DHT22;40172;53.022;7.012;2023-06-22T11:15:08;26.80;99.90
54260;DHT22;40172;53.022;7.012;2023-06-22T11:17:34;26.90;99.90
54260;DHT22;40172;53.022;7.012;2023-06-22T11:20:00;27.00;99.90
54260;DHT22;40172;53.022;7.012;2023-06-22T11:22:26;27.10;99.90
54260;DHT22;40172;53.022;7.012;2023-06-22T11:24:52;27.10;99.60
54260;DHT22;40172;53.022;7.012;2023-06-22T11:27:17;27.10;98.80
54260;DHT22;40172;53.022;7.012;2023-06-22T11:29:43;27.10;98.30
54260;DHT22;40172;53.022;7.012;2023-06-22T11:32:08;27.10;98.30
54260;DHT22;40172;53.022;7.012;2023-06-22T11:34:34;27.10;98.90
54260;DHT22;40172;53.022;7.012;2023-06-22T11:37:00;27.10;98.30
54260;DHT22;40172;53.022;7.012;2023-06-22T11:39:25;27.10;98.30
54260;DHT22;40172;53.022;7.012;2023-06-22T11:41:51;27.20;97.60
54260;DHT22;40172;53.022;7.012;2023-06-22T11:44:17;27.20;97.60
54260;DHT22;40172;53.022;7.012;2023-06-22T11:46:42;27.10;96.60
54260;DHT22;40172;53.022;7.012;2023-06-22T11:49:08;27.10;97.60
54260;DHT22;40172;53.022;7.012;2023-06-22T11:51:34;27.10;97.50
54260;DHT22;40172;53.022;7.012;2023-06-22T11:53:59;27.00;97.60
54260;DHT22;40172;53.022;7.012;2023-06-22T11:56:25;27.00;97.30
54260;DHT22;40172;53.022;7.012;2023-06-22T11:58:51;27.10;97.10
54260;DHT22;40172;53.022;7.012;2023-06-22T12:01:16;27.20;96.60
54260;DHT22;40172;53.022;7.012;2023-06-22T12:03:42;27.00;96.70
54260;DHT22;40172;53.022;7.012;2023-06-22T12:06:11;27.20;96.40
54260;DHT22;40172;53.022;7.012;2023-06-22T12:08:37;27.20;95.40
54260;DHT22;40172;53.022;7.012;2023-06-22T12:11:02;27.10;95.70
54260;DHT22;40172;53.022;7.012;2023-06-22T12:13:28;27.10;95.10
54260;DHT22;40172;53.022;7.012;2023-06-22T12:15:53;27.00;94.60
54260;DHT22;40172;53.022;7.012;2023-06-22T12:18:19;27.10;94.40
54260;DHT22;40172;53.022;7.012;2023-06-22T12:20:46;27.10;94.00
54260;DHT22;40172;53.022;7.012;2023-06-22T12:23:12;27.10;94.90
54260;DHT22;40172;53.022;7.012;2023-06-22T12:25:38;27.20;94.60
54260;DHT22;40172;53.022;7.012;2023-06-22T12:28:04;27.20;94.50
54260;DHT22;40172;53.022;7.012;2023-06-22T12:30:30;27.40;95.10
54260;DHT22;40172;53.022;7.012;2023-06-22T12:32:56;27.60;94.70
54260;DHT22;40172;53.022;7.012;2023-06-22T12:35:22;27.70;94.70
54260;DHT22;40172;53.022;7.012;2023-06-22T12:37:47;27.60;93.70
54260;DHT22;40172;53.022;7.012;2023-06-22T12:40:13;27.40;93.60
54260;DHT22;40172;53.022;7.012;2023-06-22T12:42:39;27.40;94.00
54260;DHT22;40172;53.022;7.012;2023-06-22T12:45:05;27.30;94.30
54260;DHT22;40172;53.022;7.012;2023-06-22T12:47:31;27.30;93.90
54260;DHT22;40172;53.022;7.012;2023-06-22T12:49:57;27.30;93.40
54260;DHT22;40172;53.022;7.012;2023-06-22T12:52:23;27.10;92.30
54260;DHT22;40172;53.022;7.012;2023-06-22T12:54:48;27.00;92.70
54260;DHT22;40172;53.022;7.012;2023-06-22T12:57:14;27.00;93.00
54260;DHT22;40172;53.022;7.012;2023-06-22T12:59:40;26.90;93.50
54260;DHT22;40172;53.022;7.012;2023-06-22T13:02:05;26.80;93.10
54260;DHT22;40172;53.022;7.012;2023-06-22T13:04:31;26.70;93.40
54260;DHT22;40172;53.022;7.012;2023-06-22T13:06:57;26.70;93.70
54260;DHT22;40172;53.022;7.012;2023-06-22T13:09:22;26.70;93.00
54260;DHT22;40172;53.022;7.012;2023-06-22T13:11:48;26.80;93.00
54260;DHT22;40172;53.022;7.012;2023-06-22T13:14:13;26.70;93.10
54260;DHT22;40172;53.022;7.012;2023-06-22T13:16:41;26.60;93.40
54260;DHT22;40172;53.022;7.012;2023-06-22T13:19:07;26.60;93.30
54260;DHT22;40172;53.022;7.012;2023-06-22T13:21:32;26.60;93.10
54260;DHT22;40172;53.022;7.012;2023-06-22T13:23:59;26.60;93.80
54260;DHT22;40172;53.022;7.012;2023-06-22T13:26:25;26.50;93.50
54260;DHT22;40172;53.022;7.012;2023-06-22T13:28:52;26.40;93.30
54260;DHT22;40172;53.022;7.012;2023-06-22T13:31:18;26.30;93.20
54260;DHT22;40172;53.022;7.012;2023-06-22T13:33:43;26.20;93.40
54260;DHT22;40172;53.022;7.012;2023-06-22T13:36:11;26.10;93.90
54260;DHT22;40172;53.022;7.012;2023-06-22T13:38:37;26.00;94.50
54260;DHT22;40172;53.022;7.012;2023-06-22T13:41:04;25.90;95.00
54260;DHT22;40172;53.022;7.012;2023-06-22T13:43:30;25.90;94.50
54260;DHT22;40172;53.022;7.012;2023-06-22T13:45:56;25.90;94.60
54260;DHT22;40172;53.022;7.012;2023-06-22T13:48:21;25.80;94.60
54260;DHT22;40172;53.022;7.012;2023-06-22T13:50:48;25.60;94.90
54260;DHT22;40172;53.022;7.012;2023-06-22T13:53:14;25.50;95.90
54260;DHT22;40172;53.022;7.012;2023-06-22T13:55:40;25.50;96.20
54260;DHT22;40172;53.022;7.012;2023-06-22T13:58:06;25.50;97.50
54260;DHT22;40172;53.022;7.012;2023-06-22T14:00:32;25.30;97.10
54260;DHT22;40172;53.022;7.012;2023-06-22T14:02:57;25.20;97.40
54260;DHT22;40172;53.022;7.012;2023-06-22T14:05:23;25.10;98.10
54260;DHT22;40172;53.022;7.012;2023-06-22T14:07:49;25.10;98.50
54260;DHT22;40172;53.022;7.012;2023-06-22T14:10:14;25.00;99.30
54260;DHT22;40172;53.022;7.012;2023-06-22T14:12:40;25.00;99.90
54260;DHT22;40172;53.022;7.012;2023-06-22T14:15:06;24.90;99.90
54260;DHT22;40172;53.022;7.012;2023-06-22T14:17:31;24.90;99.90
54260;DHT22;40172;53.022;7.012;2023-06-22T14:19:57;24.80;99.90
54260;DHT22;40172;53.022;7.012;2023-06-22T14:22:23;24.70;99.90
54260;DHT22;40172;53.022;7.012;2023-06-22T14:24:49;24.50;99.90
54260;DHT22;40172;53.022;7.012;2023-06-22T14:27:15;24.30;99.90
54260;DHT22;40172;53.022;7.012;2023-06-22T14:29:40;24.30;99.90
54260;DHT22;40172;53.022;7.012;2023-06-22T14:32:07;24.20;99.90
54260;DHT22;40172;53.022;7.012;2023-06-22T14:34:33;24.10;99.90
54260;DHT22;40172;53.022;7.012;2023-06-22T14:37:01;23.90;99.90
54260;DHT22;40172;53.022;7.012;2023-06-22T14:39:27;23.80;99.90
54260;DHT22;40172;53.022;7.012;2023-06-22T14:41:52;23.70;99.90
54260;DHT22;40172;53.022;7.012;2023-06-22T14:44:18;23.50;99.90
54260;DHT22;40172;53.022;7.012;2023-06-22T14:46:44;23.40;99.90
54260;DHT22;40172;53.022;7.012;2023-06-22T14:49:09;23.30;99.90
54260;DHT22;40172;53.022;7.012;2023-06-22T14:51:35;23.20;99.90
54260;DHT22;40172;53.022;7.012;2023-06-22T14:54:00;23.10;99.90
54260;DHT22;40172;53.022;7.012;2023-06-22T14:56:26;23.40;99.90
54260;DHT22;40172;53.022;7.012;2023-06-22T14:58:51;22.90;99.90
54260;DHT22;40172;53.022;7.012;2023-06-22T15:01:17;22.90;99.90
54260;DHT22;40172;53.022;7.012;2023-06-22T15:03:44;22.80;99.90
54260;DHT22;40172;53.022;7.012;2023-06-22T15:06:10;22.80;99.90
54260;DHT22;40172;53.022;7.012;2023-06-22T15:08:40;22.70;99.90
54260;DHT22;40172;53.022;7.012;2023-06-22T15:11:06;22.60;99.90
54260;DHT22;40172;53.022;7.012;2023-06-22T15:13:33;22.50;99.90
54260;DHT22;40172;53.022;7.012;2023-06-22T15:16:00;22.50;99.90
54260;DHT22;40172;53.022;7.012;2023-06-22T15:18:25;22.40;99.90
54260;DHT22;40172;53.022;7.012;2023-06-22T15:20:52;22.30;99.90
54260;DHT22;40172;53.022;7.012;2023-06-22T15:23:17;22.20;99.90
54260;DHT22;40172;53.022;7.012;2023-06-22T15:25:43;22.00;99.90
54260;DHT22;40172;53.022;7.012;2023-06-22T15:28:10;22.00;99.90